sensor_id;sensor_type;location;lat;lon;timestamp;temperature;humidity
82126;DHT22;71668;51.400;6.758;2024-01-16T00:01:01;3.70;99.90
82126;DHT22;71668;51.400;6.758;2024-01-16T00:03:28;3.40;99.90
82126;DHT22;71668;51.400;6.758;2024-01-16T00:05:56;3.30;99.90
82126;DHT22;71668;51.400;6.758;2024-01-16T00:08:26;3.10;99.90
82126;DHT22;71668;51.400;6.758;2024-01-16T00:10:53;3.00;99.90
82126;DHT22;71668;51.400;6.758;2024-01-16T00:13:20;3.00;99.90
82126;DHT22;71668;51.400;6.758;2024-01-16T00:15:47;2.90;99.90
82126;DHT22;71668;51.400;6.758;2024-01-16T00:18:16;2.80;99.90
82126;DHT22;71668;51.400;6.758;2024-01-16T00:20:46;2.80;99.90
82126;DHT22;71668;51.400;6.758;2024-01-16T00:23:13;2.70;99.90
82126;DHT22;71668;51.400;6.758;2024-01-16T00:25:39;2.70;99.90
82126;DHT22;71668;51.400;6.758;2024-01-16T00:28:06;2.70;99.90
82126;DHT22;71668;51.400;6.758;2024-01-16T00:30:33;2.70;99.90
82126;DHT22;71668;51.400;6.758;2024-01-16T00:33:00;2.70;99.90
82126;DHT22;71668;51.400;6.758;2024-01-16T00:35:30;2.60;99.90
82126;DHT22;71668;51.400;6.758;2024-01-16T00:37:57;2.60;99.90
82126;DHT22;71668;51.400;6.758;2024-01-16T00:40:26;2.60;99.90
82126;DHT22;71668;51.400;6.758;2024-01-16T00:42:55;2.60;99.90
82126;DHT22;71668;51.400;6.758;2024-01-16T00:45:23;2.70;99.90
82126;DHT22;71668;51.400;6.758;2024-01-16T00:47:50;2.70;99.90
82126;DHT22;71668;51.400;6.758;2024-01-16T00:50:17;2.70;99.90
82126;DHT22;71668;51.400;6.758;2024-01-16T00:52:45;2.60;99.90
82126;DHT22;71668;51.400;6.758;2024-01-16T00:55:15;2.60;99.90
82126;DHT22;71668;51.400;6.758;2024-01-16T00:57:43;2.60;99.90
82126;DHT22;71668;51.400;6.758;2024-01-16T01:00:10;2.60;99.90
82126;DHT22;71668;51.400;6.758;2024-01-16T01:02:39;2.60;99.90
82126;DHT22;71668;51.400;6.758;2024-01-16T01:05:07;2.60;99.90
82126;DHT22;71668;51.400;6.758;2024-01-16T01:07:34;2.60;99.90
82126;DHT22;71668;51.400;6.758;2024-01-16T01:10:02;2.60;99.90
82126;DHT22;71668;51.400;6.758;2024-01-16T01:12:29;2.50;99.90
82126;DHT22;71668;51.400;6.758;2024-01-16T01:14:59;2.60;99.90
82126;DHT22;71668;51.400;6.758;2024-01-16T01:17:27;2.50;99.90
82126;DHT22;71668;51.400;6.758;2024-01-16T01:19:54;2.50;99.90
82126;DHT22;71668;51.400;6.758;2024-01-16T01:22:21;2.50;99.90
82126;DHT22;71668;51.400;6.758;2024-01-16T01:24:48;2.50;99.90
82126;DHT22;71668;51.400;6.758;2024-01-16T01:27:14;2.50;99.90
82126;DHT22;71668;51.400;6.758;2024-01-16T01:29:41;2.50;99.90
82126;DHT22;71668;51.400;6.758;2024-01-16T01:32:08;2.40;99.90
82126;DHT22;71668;51.400;6.758;2024-01-16T01:34:35;2.50;99.90
82126;DHT22;71668;51.400;6.758;2024-01-16T01:37:02;2.50;99.90
82126;DHT22;71668;51.400;6.758;2024-01-16T01:39:30;2.50;99.90
82126;DHT22;71668;51.400;6.758;2024-01-16T01:41:57;2.40;99.90
82126;DHT22;71668;51.400;6.758;2024-01-16T01:44:24;2.50;99.90
82126;DHT22;71668;51.400;6.758;2024-01-16T01:46:54;2.40;99.90
82126;DHT22;71668;51.400;6.758;2024-01-16T01:49:21;2.50;99.90
82126;DHT22;71668;51.400;6.758;2024-01-16T01:51:49;2.50;99.90
82126;DHT22;71668;51.400;6.758;2024-01-16T01:54:17;2.50;99.90
82126;DHT22;71668;51.400;6.758;2024-01-16T01:56:47;2.50;99.90
82126;DHT22;71668;51.400;6.758;2024-01-16T01:59:17;2.50;99.90
82126;DHT22;71668;51.400;6.758;2024-01-16T02:01:46;2.50;99.90
82126;DHT22;71668;51.400;6.758;2024-01-16T02:04:31;2.50;99.90
82126;DHT22;71668;51.400;6.758;2024-01-16T02:07:10;2.50;99.90
82126;DHT22;71668;51.400;6.758;2024-01-16T02:09:37;2.40;99.90
82126;DHT22;71668;51.400;6.758;2024-01-16T02:12:05;2.40;99.90
82126;DHT22;71668;51.400;6.758;2024-01-16T02:14:32;2.40;99.90
82126;DHT22;71668;51.400;6.758;2024-01-16T02:16:59;2.40;99.90
82126;DHT22;71668;51.400;6.758;2024-01-16T02:19:26;2.40;99.90
82126;DHT22;71668;51.400;6.758;2024-01-16T02:21:57;2.40;99.90
82126;DHT22;71668;51.400;6.758;2024-01-16T02:24:26;2.40;99.90
82126;DHT22;71668;51.400;6.758;2024-01-16T02:26:53;2.40;99.90
82126;DHT22;71668;51.400;6.758;2024-01-16T02:29:20;2.40;99.90
82126;DHT22;71668;51.400;6.758;2024-01-16T02:31:47;2.40;99.90
82126;DHT22;71668;51.400;6.758;2024-01-16T02:34:14;2.40;99.90
82126;DHT22;71668;51.400;6.758;2024-01-16T02:36:41;2.40;99.90
82126;DHT22;71668;51.400;6.758;2024-01-16T02:39:08;2.50;99.90
82126;DHT22;71668;51.400;6.758;2024-01-16T02:41:39;2.40;99.90
82126;DHT22;71668;51.400;6.758;2024-01-16T02:44:11;2.40;99.90
82126;DHT22;71668;51.400;6.758;2024-01-16T02:46:41;2.50;99.90
82126;DHT22;71668;51.400;6.758;2024-01-16T02:49:13;2.50;99.90
82126;DHT22;71668;51.400;6.758;2024-01-16T02:51:44;2.50;99.90
82126;DHT22;71668;51.400;6.758;2024-01-16T02:54:11;2.40;99.90
82126;DHT22;71668;51.400;6.758;2024-01-16T02:56:38;2.50;99.90
82126;DHT22;71668;51.400;6.758;2024-01-16T02:59:05;2.50;99.90
82126;DHT22;71668;51.400;6.758;2024-01-16T03:01:32;2.50;99.90
82126;DHT22;71668;51.400;6.758;2024-01-16T03:03:59;2.50;99.90
82126;DHT22;71668;51.400;6.758;2024-01-16T03:06:26;2.50;99.90
82126;DHT22;71668;51.400;6.758;2024-01-16T03:08:55;2.40;99.90
82126;DHT22;71668;51.400;6.758;2024-01-16T03:11:22;2.50;99.90
82126;DHT22;71668;51.400;6.758;2024-01-16T03:13:49;2.50;99.90
82126;DHT22;71668;51.400;6.758;2024-01-16T03:16:19;2.50;99.90
82126;DHT22;71668;51.400;6.758;2024-01-16T03:18:46;2.50;99.90
82126;DHT22;71668;51.400;6.758;2024-01-16T03:21:16;2.50;99.90
82126;DHT22;71668;51.400;6.758;2024-01-16T03:23:46;2.40;99.90
82126;DHT22;71668;51.400;6.758;2024-01-16T03:26:13;2.40;99.90
82126;DHT22;71668;51.400;6.758;2024-01-16T03:28:41;2.40;99.90
82126;DHT22;71668;51.400;6.758;2024-01-16T03:31:08;2.40;99.90
82126;DHT22;71668;51.400;6.758;2024-01-16T03:33:35;2.40;99.90
82126;DHT22;71668;51.400;6.758;2024-01-16T03:36:10;2.50;99.90
82126;DHT22;71668;51.400;6.758;2024-01-16T03:38:37;2.40;99.90
82126;DHT22;71668;51.400;6.758;2024-01-16T03:41:04;2.40;99.90
82126;DHT22;71668;51.400;6.758;2024-01-16T03:43:34;2.40;99.90
82126;DHT22;71668;51.400;6.758;2024-01-16T03:46:02;2.40;99.90
82126;DHT22;71668;51.400;6.758;2024-01-16T03:48:28;2.40;99.90
82126;DHT22;71668;51.400;6.758;2024-01-16T03:50:56;2.40;99.90
82126;DHT22;71668;51.400;6.758;2024-01-16T03:53:23;2.40;99.90
82126;DHT22;71668;51.400;6.758;2024-01-16T03:55:50;2.40;99.90
82126;DHT22;71668;51.400;6.758;2024-01-16T03:58:17;2.40;99.90
82126;DHT22;71668;51.400;6.758;2024-01-16T04:00:44;2.40;99.90
82126;DHT22;71668;51.400;6.758;2024-01-16T04:03:11;2.40;99.90
82126;DHT22;71668;51.400;6.758;2024-01-16T04:05:39;2.40;99.90
82126;DHT22;71668;51.400;6.758;2024-01-16T04:08:07;2.40;99.90
82126;DHT22;71668;51.400;6.758;2024-01-16T04:10:34;2.40;99.90
82126;DHT22;71668;51.400;6.758;2024-01-16T04:13:02;2.40;99.90
82126;DHT22;71668;51.400;6.758;2024-01-16T04:15:29;2.40;99.90
82126;DHT22;71668;51.400;6.758;2024-01-16T04:17:56;2.40;99.90
82126;DHT22;71668;51.400;6.758;2024-01-16T04:20:23;2.40;99.90
82126;DHT22;71668;51.400;6.758;2024-01-16T04:22:50;2.40;99.90
82126;DHT22;71668;51.400;6.758;2024-01-16T04:25:16;2.40;99.90
82126;DHT22;71668;51.400;6.758;2024-01-16T04:27:44;2.40;99.90
82126;DHT22;71668;51.400;6.758;2024-01-16T04:30:11;2.40;99.90
82126;DHT22;71668;51.400;6.758;2024-01-16T04:32:39;2.40;99.90
82126;DHT22;71668;51.400;6.758;2024-01-16T04:35:13;2.40;99.90
82126;DHT22;71668;51.400;6.758;2024-01-16T04:37:40;2.40;99.90
82126;DHT22;71668;51.400;6.758;2024-01-16T04:40:07;2.40;99.90
82126;DHT22;71668;51.400;6.758;2024-01-16T04:42:34;2.40;99.90
82126;DHT22;71668;51.400;6.758;2024-01-16T04:45:01;2.40;99.90
82126;DHT22;71668;51.400;6.758;2024-01-16T04:47:28;2.40;99.90
82126;DHT22;71668;51.400;6.758;2024-01-16T04:50:01;2.40;99.90
82126;DHT22;71668;51.400;6.758;2024-01-16T04:52:35;2.40;99.90
82126;DHT22;71668;51.400;6.758;2024-01-16T04:55:02;2.40;99.90
82126;DHT22;71668;51.400;6.758;2024-01-16T04:57:29;2.40;99.90
82126;DHT22;71668;51.400;6.758;2024-01-16T04:59:57;2.40;99.90
82126;DHT22;71668;51.400;6.758;2024-01-16T05:02:24;2.40;99.90
82126;DHT22;71668;51.400;6.758;2024-01-16T05:04:50;2.40;99.90
82126;DHT22;71668;51.400;6.758;2024-01-16T05:07:18;2.40;99.90
82126;DHT22;71668;51.400;6.758;2024-01-16T05:09:48;2.40;99.90
82126;DHT22;71668;51.400;6.758;2024-01-16T05:12:17;2.40;99.90
82126;DHT22;71668;51.400;6.758;2024-01-16T05:14:44;2.40;99.90
82126;DHT22;71668;51.400;6.758;2024-01-16T05:17:12;2.40;99.90
82126;DHT22;71668;51.400;6.758;2024-01-16T05:19:39;2.40;99.90
82126;DHT22;71668;51.400;6.758;2024-01-16T05:22:06;2.40;99.90
82126;DHT22;71668;51.400;6.758;2024-01-16T05:24:33;2.40;99.90
82126;DHT22;71668;51.400;6.758;2024-01-16T05:27:01;2.40;99.90
82126;DHT22;71668;51.400;6.758;2024-01-16T05:29:28;2.40;99.90
82126;DHT22;71668;51.400;6.758;2024-01-16T05:31:55;2.40;99.90
82126;DHT22;71668;51.400;6.758;2024-01-16T05:34:21;2.40;99.90
82126;DHT22;71668;51.400;6.758;2024-01-16T05:36:48;2.40;99.90
82126;DHT22;71668;51.400;6.758;2024-01-16T05:39:15;2.40;99.90
82126;DHT22;71668;51.400;6.758;2024-01-16T05:41:43;2.40;99.90
82126;DHT22;71668;51.400;6.758;2024-01-16T05:44:10;2.30;99.90
82126;DHT22;71668;51.400;6.758;2024-01-16T05:46:37;2.30;99.90
82126;DHT22;71668;51.400;6.758;2024-01-16T05:49:11;2.30;99.90
82126;DHT22;71668;51.400;6.758;2024-01-16T05:51:41;2.30;99.90
82126;DHT22;71668;51.400;6.758;2024-01-16T05:54:07;2.20;99.90
82126;DHT22;71668;51.400;6.758;2024-01-16T05:56:34;2.20;99.90
82126;DHT22;71668;51.400;6.758;2024-01-16T05:59:01;2.20;99.90
82126;DHT22;71668;51.400;6.758;2024-01-16T06:01:28;2.20;99.90
82126;DHT22;71668;51.400;6.758;2024-01-16T06:03:55;2.20;99.90
82126;DHT22;71668;51.400;6.758;2024-01-16T06:10:12;2.20;99.90
82126;DHT22;71668;51.400;6.758;2024-01-16T06:12:42;2.10;99.90
82126;DHT22;71668;51.400;6.758;2024-01-16T06:15:09;2.10;99.90
82126;DHT22;71668;51.400;6.758;2024-01-16T06:17:38;2.10;99.90
82126;DHT22;71668;51.400;6.758;2024-01-16T06:20:05;2.10;99.90
82126;DHT22;71668;51.400;6.758;2024-01-16T06:22:33;2.10;99.90
82126;DHT22;71668;51.400;6.758;2024-01-16T06:25:00;2.10;99.90
82126;DHT22;71668;51.400;6.758;2024-01-16T06:27:28;2.10;99.90
82126;DHT22;71668;51.400;6.758;2024-01-16T06:29:55;2.10;99.90
82126;DHT22;71668;51.400;6.758;2024-01-16T06:32:22;2.00;99.90
82126;DHT22;71668;51.400;6.758;2024-01-16T06:34:49;2.00;99.90
82126;DHT22;71668;51.400;6.758;2024-01-16T06:37:16;2.00;99.90
82126;DHT22;71668;51.400;6.758;2024-01-16T06:39:44;2.00;99.90
82126;DHT22;71668;51.400;6.758;2024-01-16T06:42:12;2.00;99.90
82126;DHT22;71668;51.400;6.758;2024-01-16T06:44:39;2.00;99.90
82126;DHT22;71668;51.400;6.758;2024-01-16T06:47:06;2.00;99.90
82126;DHT22;71668;51.400;6.758;2024-01-16T06:49:32;1.90;99.90
82126;DHT22;71668;51.400;6.758;2024-01-16T06:51:59;1.90;99.90
82126;DHT22;71668;51.400;6.758;2024-01-16T06:54:26;1.90;99.90
82126;DHT22;71668;51.400;6.758;2024-01-16T06:56:53;1.90;99.90
82126;DHT22;71668;51.400;6.758;2024-01-16T06:59:20;1.90;99.90
82126;DHT22;71668;51.400;6.758;2024-01-16T07:01:48;1.90;99.90
82126;DHT22;71668;51.400;6.758;2024-01-16T07:04:15;1.90;99.90
82126;DHT22;71668;51.400;6.758;2024-01-16T07:06:42;1.90;99.90
82126;DHT22;71668;51.400;6.758;2024-01-16T07:09:10;1.90;99.90
82126;DHT22;71668;51.400;6.758;2024-01-16T07:11:40;1.80;99.90
82126;DHT22;71668;51.400;6.758;2024-01-16T07:14:09;1.80;99.90
82126;DHT22;71668;51.400;6.758;2024-01-16T07:16:37;1.80;99.90
82126;DHT22;71668;51.400;6.758;2024-01-16T07:19:05;1.80;99.90
82126;DHT22;71668;51.400;6.758;2024-01-16T07:21:38;1.80;99.90
82126;DHT22;71668;51.400;6.758;2024-01-16T07:24:05;1.80;99.90
82126;DHT22;71668;51.400;6.758;2024-01-16T07:26:37;1.80;99.90
82126;DHT22;71668;51.400;6.758;2024-01-16T07:29:04;1.80;99.90
82126;DHT22;71668;51.400;6.758;2024-01-16T07:31:33;1.80;99.90
82126;DHT22;71668;51.400;6.758;2024-01-16T07:34:00;1.80;99.90
82126;DHT22;71668;51.400;6.758;2024-01-16T07:36:32;1.80;99.90
82126;DHT22;71668;51.400;6.758;2024-01-16T07:38:59;1.80;99.90
82126;DHT22;71668;51.400;6.758;2024-01-16T07:41:27;1.80;99.90
82126;DHT22;71668;51.400;6.758;2024-01-16T07:43:54;1.80;99.90
82126;DHT22;71668;51.400;6.758;2024-01-16T07:46:20;1.80;99.90
82126;DHT22;71668;51.400;6.758;2024-01-16T07:48:47;1.80;99.90
82126;DHT22;71668;51.400;6.758;2024-01-16T07:51:14;1.80;99.90
82126;DHT22;71668;51.400;6.758;2024-01-16T07:53:42;1.80;99.90
82126;DHT22;71668;51.400;6.758;2024-01-16T07:56:09;1.80;99.90
82126;DHT22;71668;51.400;6.758;2024-01-16T07:58:37;1.90;99.90
82126;DHT22;71668;51.400;6.758;2024-01-16T08:01:04;1.80;99.90
82126;DHT22;71668;51.400;6.758;2024-01-16T08:03:31;1.80;99.90
82126;DHT22;71668;51.400;6.758;2024-01-16T08:05:58;1.90;99.90
82126;DHT22;71668;51.400;6.758;2024-01-16T08:08:26;1.80;99.90
82126;DHT22;71668;51.400;6.758;2024-01-16T08:10:52;1.80;99.90
82126;DHT22;71668;51.400;6.758;2024-01-16T08:13:19;1.80;99.90
82126;DHT22;71668;51.400;6.758;2024-01-16T08:15:46;1.90;99.90
82126;DHT22;71668;51.400;6.758;2024-01-16T08:18:13;1.80;99.90
82126;DHT22;71668;51.400;6.758;2024-01-16T08:20:41;1.90;99.90
82126;DHT22;71668;51.400;6.758;2024-01-16T08:23:08;1.90;99.90
82126;DHT22;71668;51.400;6.758;2024-01-16T08:25:35;2.00;99.90
82126;DHT22;71668;51.400;6.758;2024-01-16T08:28:02;2.00;99.90
82126;DHT22;71668;51.400;6.758;2024-01-16T08:30:29;2.00;99.90
82126;DHT22;71668;51.400;6.758;2024-01-16T08:32:56;2.00;99.90
82126;DHT22;71668;51.400;6.758;2024-01-16T08:35:23;1.90;99.90
82126;DHT22;71668;51.400;6.758;2024-01-16T08:37:50;2.00;99.90
82126;DHT22;71668;51.400;6.758;2024-01-16T08:40:17;2.00;99.90
82126;DHT22;71668;51.400;6.758;2024-01-16T08:42:44;2.00;99.90
82126;DHT22;71668;51.400;6.758;2024-01-16T08:45:11;2.00;99.90
82126;DHT22;71668;51.400;6.758;2024-01-16T08:47:38;2.00;99.90
82126;DHT22;71668;51.400;6.758;2024-01-16T08:50:08;2.50;99.90
82126;DHT22;71668;51.400;6.758;2024-01-16T08:52:35;3.20;99.90
82126;DHT22;71668;51.400;6.758;2024-01-16T08:55:02;3.30;99.90
82126;DHT22;71668;51.400;6.758;2024-01-16T08:57:30;2.90;99.90
82126;DHT22;71668;51.400;6.758;2024-01-16T08:59:57;3.40;99.90
82126;DHT22;71668;51.400;6.758;2024-01-16T09:02:24;3.80;99.90
82126;DHT22;71668;51.400;6.758;2024-01-16T09:04:55;4.10;99.90
82126;DHT22;71668;51.400;6.758;2024-01-16T09:07:22;4.20;99.90
82126;DHT22;71668;51.400;6.758;2024-01-16T09:09:49;3.40;99.90
82126;DHT22;71668;51.400;6.758;2024-01-16T09:12:16;2.90;99.90
82126;DHT22;71668;51.400;6.758;2024-01-16T09:14:44;2.60;99.90
82126;DHT22;71668;51.400;6.758;2024-01-16T09:17:11;2.40;99.90
82126;DHT22;71668;51.400;6.758;2024-01-16T09:19:38;2.30;99.90
82126;DHT22;71668;51.400;6.758;2024-01-16T09:22:05;2.20;99.90
82126;DHT22;71668;51.400;6.758;2024-01-16T09:24:32;2.20;99.90
82126;DHT22;71668;51.400;6.758;2024-01-16T09:27:00;2.20;99.90
82126;DHT22;71668;51.400;6.758;2024-01-16T09:29:26;2.20;99.90
82126;DHT22;71668;51.400;6.758;2024-01-16T09:31:55;2.20;99.90
82126;DHT22;71668;51.400;6.758;2024-01-16T09:34:21;2.20;99.90
82126;DHT22;71668;51.400;6.758;2024-01-16T09:36:50;2.20;99.90
82126;DHT22;71668;51.400;6.758;2024-01-16T09:39:17;2.20;99.90
82126;DHT22;71668;51.400;6.758;2024-01-16T09:42:17;2.20;99.90
82126;DHT22;71668;51.400;6.758;2024-01-16T09:44:51;2.30;99.90
82126;DHT22;71668;51.400;6.758;2024-01-16T09:47:22;2.20;99.90
82126;DHT22;71668;51.400;6.758;2024-01-16T09:49:50;2.20;99.90
82126;DHT22;71668;51.400;6.758;2024-01-16T09:52:28;2.20;99.90
82126;DHT22;71668;51.400;6.758;2024-01-16T09:54:55;2.20;99.90
82126;DHT22;71668;51.400;6.758;2024-01-16T09:57:25;2.20;99.90
82126;DHT22;71668;51.400;6.758;2024-01-16T09:59:52;2.20;99.90
82126;DHT22;71668;51.400;6.758;2024-01-16T10:02:25;2.20;99.90
82126;DHT22;71668;51.400;6.758;2024-01-16T10:04:55;2.20;99.90
82126;DHT22;71668;51.400;6.758;2024-01-16T10:07:24;2.30;99.90
82126;DHT22;71668;51.400;6.758;2024-01-16T10:09:57;2.30;99.90
82126;DHT22;71668;51.400;6.758;2024-01-16T10:12:28;2.30;99.90
82126;DHT22;71668;51.400;6.758;2024-01-16T10:14:55;2.30;99.90
82126;DHT22;71668;51.400;6.758;2024-01-16T10:17:35;2.30;99.90
82126;DHT22;71668;51.400;6.758;2024-01-16T10:20:06;2.40;99.90
82126;DHT22;71668;51.400;6.758;2024-01-16T10:22:34;2.40;99.90
82126;DHT22;71668;51.400;6.758;2024-01-16T10:25:10;2.40;99.90
82126;DHT22;71668;51.400;6.758;2024-01-16T10:27:40;2.40;99.90
82126;DHT22;71668;51.400;6.758;2024-01-16T10:30:11;2.40;99.90
82126;DHT22;71668;51.400;6.758;2024-01-16T10:32:42;2.40;99.90
82126;DHT22;71668;51.400;6.758;2024-01-16T10:35:11;2.40;99.90
82126;DHT22;71668;51.400;6.758;2024-01-16T10:40:20;2.50;99.90
82126;DHT22;71668;51.400;6.758;2024-01-16T10:43:02;2.50;99.90
82126;DHT22;71668;51.400;6.758;2024-01-16T10:45:33;2.50;99.90
82126;DHT22;71668;51.400;6.758;2024-01-16T10:48:01;2.60;99.90
82126;DHT22;71668;51.400;6.758;2024-01-16T10:50:31;2.60;99.90
82126;DHT22;71668;51.400;6.758;2024-01-16T10:53:00;2.70;99.90
82126;DHT22;71668;51.400;6.758;2024-01-16T10:55:29;2.80;99.90
82126;DHT22;71668;51.400;6.758;2024-01-16T10:57:57;2.90;99.90
82126;DHT22;71668;51.400;6.758;2024-01-16T11:00:25;3.10;99.90
82126;DHT22;71668;51.400;6.758;2024-01-16T11:03:04;3.30;99.90
82126;DHT22;71668;51.400;6.758;2024-01-16T11:05:32;3.40;99.90
82126;DHT22;71668;51.400;6.758;2024-01-16T11:08:00;3.40;99.60
82126;DHT22;71668;51.400;6.758;2024-01-16T11:10:31;3.40;99.50
82126;DHT22;71668;51.400;6.758;2024-01-16T11:13:02;3.30;99.90
82126;DHT22;71668;51.400;6.758;2024-01-16T11:15:31;3.30;99.90
82126;DHT22;71668;51.400;6.758;2024-01-16T11:17:59;3.30;99.60
82126;DHT22;71668;51.400;6.758;2024-01-16T11:20:27;3.20;99.80
82126;DHT22;71668;51.400;6.758;2024-01-16T11:23:15;3.20;99.90
82126;DHT22;71668;51.400;6.758;2024-01-16T11:25:43;3.30;99.90
82126;DHT22;71668;51.400;6.758;2024-01-16T11:28:11;3.30;99.90
82126;DHT22;71668;51.400;6.758;2024-01-16T11:30:39;3.30;99.90
82126;DHT22;71668;51.400;6.758;2024-01-16T11:35:58;3.70;99.10
82126;DHT22;71668;51.400;6.758;2024-01-16T11:38:26;4.00;98.60
82126;DHT22;71668;51.400;6.758;2024-01-16T11:40:53;4.20;97.00
82126;DHT22;71668;51.400;6.758;2024-01-16T11:46:00;4.60;92.80
82126;DHT22;71668;51.400;6.758;2024-01-16T11:48:27;5.00;90.00
82126;DHT22;71668;51.400;6.758;2024-01-16T11:50:59;6.20;80.30
82126;DHT22;71668;51.400;6.758;2024-01-16T11:54:01;5.40;76.60
82126;DHT22;71668;51.400;6.758;2024-01-16T12:00:02;3.90;92.70
82126;DHT22;71668;51.400;6.758;2024-01-16T12:02:55;3.70;94.90
82126;DHT22;71668;51.400;6.758;2024-01-16T12:05:26;3.60;96.40
82126;DHT22;71668;51.400;6.758;2024-01-16T12:07:54;3.50;96.70
82126;DHT22;71668;51.400;6.758;2024-01-16T12:10:25;3.40;97.80
82126;DHT22;71668;51.400;6.758;2024-01-16T12:13:02;3.40;97.90
82126;DHT22;71668;51.400;6.758;2024-01-16T12:15:35;3.40;98.00
82126;DHT22;71668;51.400;6.758;2024-01-16T12:18:05;3.40;96.80
82126;DHT22;71668;51.400;6.758;2024-01-16T12:20:39;3.30;97.60
82126;DHT22;71668;51.400;6.758;2024-01-16T12:23:07;3.30;97.20
82126;DHT22;71668;51.400;6.758;2024-01-16T12:25:35;3.20;96.50
82126;DHT22;71668;51.400;6.758;2024-01-16T12:28:22;3.30;97.70
82126;DHT22;71668;51.400;6.758;2024-01-16T12:30:59;3.30;97.70
82126;DHT22;71668;51.400;6.758;2024-01-16T12:33:28;3.30;97.60
82126;DHT22;71668;51.400;6.758;2024-01-16T12:36:04;3.20;97.40
82126;DHT22;71668;51.400;6.758;2024-01-16T12:44:36;3.40;97.90
82126;DHT22;71668;51.400;6.758;2024-01-16T12:50:33;3.30;96.80
82126;DHT22;71668;51.400;6.758;2024-01-16T12:53:33;3.40;97.40
82126;DHT22;71668;51.400;6.758;2024-01-16T12:56:36;3.30;96.70
82126;DHT22;71668;51.400;6.758;2024-01-16T13:02:56;3.40;96.90
82126;DHT22;71668;51.400;6.758;2024-01-16T13:06:16;3.30;96.40
82126;DHT22;71668;51.400;6.758;2024-01-16T13:22:12;3.20;97.20
82126;DHT22;71668;51.400;6.758;2024-01-16T13:25:47;3.20;97.60
82126;DHT22;71668;51.400;6.758;2024-01-16T13:32:32;3.20;96.60
82126;DHT22;71668;51.400;6.758;2024-01-16T13:35:09;3.30;96.80
82126;DHT22;71668;51.400;6.758;2024-01-16T13:38:28;3.30;96.20
82126;DHT22;71668;51.400;6.758;2024-01-16T13:42:33;3.30;96.60
82126;DHT22;71668;51.400;6.758;2024-01-16T14:07:23;3.30;93.60
82126;DHT22;71668;51.400;6.758;2024-01-16T14:11:16;3.30;93.80
82126;DHT22;71668;51.400;6.758;2024-01-16T14:17:11;3.30;93.70
82126;DHT22;71668;51.400;6.758;2024-01-16T14:20:01;3.30;93.40
82126;DHT22;71668;51.400;6.758;2024-01-16T14:22:36;3.20;93.10
82126;DHT22;71668;51.400;6.758;2024-01-16T14:25:07;3.20;93.10
82126;DHT22;71668;51.400;6.758;2024-01-16T14:28:01;3.20;93.60
82126;DHT22;71668;51.400;6.758;2024-01-16T14:30:54;3.20;93.90
82126;DHT22;71668;51.400;6.758;2024-01-16T14:33:30;3.20;93.30
82126;DHT22;71668;51.400;6.758;2024-01-16T14:36:05;3.20;93.20
82126;DHT22;71668;51.400;6.758;2024-01-16T14:38:45;3.20;93.20
82126;DHT22;71668;51.400;6.758;2024-01-16T14:41:12;3.20;93.20
82126;DHT22;71668;51.400;6.758;2024-01-16T14:43:56;3.10;93.30
82126;DHT22;71668;51.400;6.758;2024-01-16T14:46:27;3.10;93.20
82126;DHT22;71668;51.400;6.758;2024-01-16T14:48:55;3.10;92.90
82126;DHT22;71668;51.400;6.758;2024-01-16T14:51:28;3.00;92.40
82126;DHT22;71668;51.400;6.758;2024-01-16T14:54:01;3.00;93.10
82126;DHT22;71668;51.400;6.758;2024-01-16T14:56:29;3.00;93.80
82126;DHT22;71668;51.400;6.758;2024-01-16T14:58:57;3.00;94.00
82126;DHT22;71668;51.400;6.758;2024-01-16T15:01:25;3.00;93.60
82126;DHT22;71668;51.400;6.758;2024-01-16T15:03:55;2.90;94.10
82126;DHT22;71668;51.400;6.758;2024-01-16T15:06:22;3.00;93.60
82126;DHT22;71668;51.400;6.758;2024-01-16T15:08:49;2.90;93.80
82126;DHT22;71668;51.400;6.758;2024-01-16T15:11:16;2.90;94.10
82126;DHT22;71668;51.400;6.758;2024-01-16T15:13:44;2.80;94.10
82126;DHT22;71668;51.400;6.758;2024-01-16T15:16:11;2.80;93.70
82126;DHT22;71668;51.400;6.758;2024-01-16T15:18:38;2.80;94.40
82126;DHT22;71668;51.400;6.758;2024-01-16T15:21:05;2.80;94.70
82126;DHT22;71668;51.400;6.758;2024-01-16T15:26:27;2.80;95.30
82126;DHT22;71668;51.400;6.758;2024-01-16T15:28:54;2.80;94.30
82126;DHT22;71668;51.400;6.758;2024-01-16T15:31:21;2.70;94.20
82126;DHT22;71668;51.400;6.758;2024-01-16T15:33:49;2.70;94.20
82126;DHT22;71668;51.400;6.758;2024-01-16T15:36:16;2.70;94.10
82126;DHT22;71668;51.400;6.758;2024-01-16T15:38:44;2.70;94.20
82126;DHT22;71668;51.400;6.758;2024-01-16T15:41:15;2.70;94.30
82126;DHT22;71668;51.400;6.758;2024-01-16T15:43:42;2.60;93.90
82126;DHT22;71668;51.400;6.758;2024-01-16T15:46:09;2.60;94.00
82126;DHT22;71668;51.400;6.758;2024-01-16T15:48:37;2.60;94.50
82126;DHT22;71668;51.400;6.758;2024-01-16T15:51:04;2.60;95.20
82126;DHT22;71668;51.400;6.758;2024-01-16T15:53:39;2.60;95.60
82126;DHT22;71668;51.400;6.758;2024-01-16T15:56:06;2.60;95.70
82126;DHT22;71668;51.400;6.758;2024-01-16T15:58:33;2.60;96.00
82126;DHT22;71668;51.400;6.758;2024-01-16T16:01:00;2.60;96.60
82126;DHT22;71668;51.400;6.758;2024-01-16T16:03:27;2.50;96.40
82126;DHT22;71668;51.400;6.758;2024-01-16T16:05:57;2.50;96.70
82126;DHT22;71668;51.400;6.758;2024-01-16T16:08:23;2.40;96.60
82126;DHT22;71668;51.400;6.758;2024-01-16T16:10:52;2.40;96.90
82126;DHT22;71668;51.400;6.758;2024-01-16T16:13:21;2.40;97.70
82126;DHT22;71668;51.400;6.758;2024-01-16T16:15:48;2.40;97.50
82126;DHT22;71668;51.400;6.758;2024-01-16T16:18:15;2.40;97.80
82126;DHT22;71668;51.400;6.758;2024-01-16T16:20:42;2.40;97.70
82126;DHT22;71668;51.400;6.758;2024-01-16T16:23:09;2.30;97.80
82126;DHT22;71668;51.400;6.758;2024-01-16T16:25:44;2.20;98.00
82126;DHT22;71668;51.400;6.758;2024-01-16T16:28:13;2.20;98.10
82126;DHT22;71668;51.400;6.758;2024-01-16T16:30:41;2.20;98.30
82126;DHT22;71668;51.400;6.758;2024-01-16T16:33:09;2.20;98.30
82126;DHT22;71668;51.400;6.758;2024-01-16T16:35:38;2.20;98.30
82126;DHT22;71668;51.400;6.758;2024-01-16T16:38:05;2.10;98.20
82126;DHT22;71668;51.400;6.758;2024-01-16T16:40:32;2.10;98.30
82126;DHT22;71668;51.400;6.758;2024-01-16T16:42:59;2.10;98.50
82126;DHT22;71668;51.400;6.758;2024-01-16T16:45:26;2.10;98.50
82126;DHT22;71668;51.400;6.758;2024-01-16T16:47:53;2.00;98.50
82126;DHT22;71668;51.400;6.758;2024-01-16T16:50:20;2.00;98.50
82126;DHT22;71668;51.400;6.758;2024-01-16T16:52:47;2.00;98.40
82126;DHT22;71668;51.400;6.758;2024-01-16T16:55:14;1.90;98.40
82126;DHT22;71668;51.400;6.758;2024-01-16T16:57:41;1.90;98.60
82126;DHT22;71668;51.400;6.758;2024-01-16T17:00:08;1.90;99.60
82126;DHT22;71668;51.400;6.758;2024-01-16T17:02:37;1.90;99.00
82126;DHT22;71668;51.400;6.758;2024-01-16T17:05:04;1.80;98.90
82126;DHT22;71668;51.400;6.758;2024-01-16T17:07:32;1.80;98.90
82126;DHT22;71668;51.400;6.758;2024-01-16T17:10:03;1.70;98.80
82126;DHT22;71668;51.400;6.758;2024-01-16T17:12:30;1.70;99.20
82126;DHT22;71668;51.400;6.758;2024-01-16T17:14:59;1.70;98.80
82126;DHT22;71668;51.400;6.758;2024-01-16T17:17:29;1.70;99.00